Palm Springs International Airport
KPSP : now visible

Airfield :











YOU CAN JOIN US ON...

 
LOGIN :

Register | Disclaimer

   EN    FR    IT 

 









Legend :    VFR   Marginal VFR   IFR   Intensive IFR   Very Intensive IFR
Visi :
Ceiling :
>= 8 km
>= 3000ft
5 to 8 km
1000 to 3000 ft
1500m to 5 km
500 to 1000 ft
800 to 1500m
200 to 500 ft
< 800m
< 200 ft
Symbols :   Thunderstorms  Fog  Heavy snow  Heavy precipitations  Wind > 20 kt






- Airport Elevation : 477 ft
- IATA code : PSP


KPSP - Palm Springs International

CURRENT METAR :
  • 191053Z AUTO 00000KT 10SM CLR 28/08 A2979 RMK AO2 SLP083 T02780078

EXPIRED METARs :
  • 190953Z AUTO 20003KT 10SM CLR 29/07 A2979 RMK AO2 SLP082 T02890072
  • 190853Z AUTO 00000KT 10SM CLR 29/08 A2979 RMK AO2 SLP083 T02890078 58004

TAF KPSP
Valid from the 19 at 06:00 until the 20 at 06:00 UTC


190520Z 1906/2006 VRB06KT P6SM FEW200
FM192000 11008KT P6SM FEW200
FM200100 33008KT P6SM SKC
KZLA FIR / North America



MET'MAP, your aeronautical weather chart ! - Copyright ORBIFLY December 2007 - Disclaimer

ORBIFLY MET'MAP TEAM :

Programming & Development : Alexandra Zaïnal
Concept & original design : Baudouin d'Aumeries
Assistance for programming : Marc-Olivier Méhu
Technical & hardware support : Manuel Goepfert

Contact : metmap@orbifly.com




SOURCES & CREDITS :

   NOAA       Earth
Advisory